Sam Mbakwe International Cargo Airport

Airport
ICAO code: 
DNIM
IATA Code: 
QOW
Summary
ICAO Region: 
AFI
Territory: 
Location: 
Isuobiangwu, Imo State
Serving: 
Owerri
Elevation: 
374 ft
Coordinates: 
Aerial View: 
5° 25' 35.004" N, 7° 12' 20.016" E
Metar
Observation
DNIM 041400Z 04010KT 7000 NSC 34/22 Q1008
Station
Sam Mbakwe International Airport
Date/Time
2021-12-04 14:00:00
Wind direction
40°
Wind speed
10 kts
Lowest cloud amount
nil significant cloud
Temperature
34°C
Dew point
22°C
Humidity
49%
QNH
1008 hPa
Weather condition
n/a

Sam Mbakwe International Cargo Airport (IATA: QOW, ICAO: DNIM), also known as Imo State Airport, serves Owerri, the capital city of Imo State in southeastern Nigeria.

Climatology

Tropical monsoon climate (Köppen climate classification Am)

Runways

Designator Length Width Surface Rops
17/35 2700 45 ASP No/No
Airport map: 
Aerial View: 

SKYbrary Partners:

Safety knowledge contributed by: